sensor_id;sensor_type;location;lat;lon;timestamp;temperature;humidity
45619;DHT22;31343;47.520;19.144;2023-02-01T00:01:27;3.80;99.90
45619;DHT22;31343;47.520;19.144;2023-02-01T00:03:53;3.70;99.90
45619;DHT22;31343;47.520;19.144;2023-02-01T00:06:19;3.50;99.90
45619;DHT22;31343;47.520;19.144;2023-02-01T00:08:45;3.60;99.90
45619;DHT22;31343;47.520;19.144;2023-02-01T00:11:11;3.60;99.90
45619;DHT22;31343;47.520;19.144;2023-02-01T00:13:40;3.50;99.90
45619;DHT22;31343;47.520;19.144;2023-02-01T00:16:13;3.60;99.90
45619;DHT22;31343;47.520;19.144;2023-02-01T00:18:40;3.70;99.90
45619;DHT22;31343;47.520;19.144;2023-02-01T00:21:06;3.80;99.90
45619;DHT22;31343;47.520;19.144;2023-02-01T00:23:34;3.80;99.90
45619;DHT22;31343;47.520;19.144;2023-02-01T00:26:02;3.80;99.90
45619;DHT22;31343;47.520;19.144;2023-02-01T00:28:28;3.80;99.90
45619;DHT22;31343;47.520;19.144;2023-02-01T00:30:58;3.70;99.90
45619;DHT22;31343;47.520;19.144;2023-02-01T00:33:24;3.70;99.90
45619;DHT22;31343;47.520;19.144;2023-02-01T00:35:50;3.80;99.90
45619;DHT22;31343;47.520;19.144;2023-02-01T00:38:17;3.80;99.90
45619;DHT22;31343;47.520;19.144;2023-02-01T00:40:42;3.90;99.90
45619;DHT22;31343;47.520;19.144;2023-02-01T00:43:08;3.90;99.90
45619;DHT22;31343;47.520;19.144;2023-02-01T00:45:35;3.90;99.90
45619;DHT22;31343;47.520;19.144;2023-02-01T00:48:01;4.00;99.90
45619;DHT22;31343;47.520;19.144;2023-02-01T00:50:26;4.00;99.90
45619;DHT22;31343;47.520;19.144;2023-02-01T00:52:52;4.00;99.90
45619;DHT22;31343;47.520;19.144;2023-02-01T00:55:18;3.90;99.90
45619;DHT22;31343;47.520;19.144;2023-02-01T00:57:43;4.00;99.90
45619;DHT22;31343;47.520;19.144;2023-02-01T01:00:10;3.90;99.90
45619;DHT22;31343;47.520;19.144;2023-02-01T01:02:35;3.90;99.90
45619;DHT22;31343;47.520;19.144;2023-02-01T01:05:01;3.80;99.90
45619;DHT22;31343;47.520;19.144;2023-02-01T01:07:27;3.90;99.90
45619;DHT22;31343;47.520;19.144;2023-02-01T01:09:53;3.90;99.90
45619;DHT22;31343;47.520;19.144;2023-02-01T01:12:20;3.90;99.90
45619;DHT22;31343;47.520;19.144;2023-02-01T01:14:46;4.00;99.90
45619;DHT22;31343;47.520;19.144;2023-02-01T01:17:12;3.90;99.90
45619;DHT22;31343;47.520;19.144;2023-02-01T01:19:38;4.00;99.90
45619;DHT22;31343;47.520;19.144;2023-02-01T01:22:04;4.10;99.90
45619;DHT22;31343;47.520;19.144;2023-02-01T01:24:29;4.10;99.90
45619;DHT22;31343;47.520;19.144;2023-02-01T01:26:55;4.10;99.90
45619;DHT22;31343;47.520;19.144;2023-02-01T01:29:21;4.00;99.90
45619;DHT22;31343;47.520;19.144;2023-02-01T01:31:46;4.10;99.90
45619;DHT22;31343;47.520;19.144;2023-02-01T01:34:12;4.10;99.90
45619;DHT22;31343;47.520;19.144;2023-02-01T01:36:38;4.10;99.90
45619;DHT22;31343;47.520;19.144;2023-02-01T01:39:04;4.10;99.90
45619;DHT22;31343;47.520;19.144;2023-02-01T01:41:31;4.10;99.90
45619;DHT22;31343;47.520;19.144;2023-02-01T01:44:01;4.10;99.90
45619;DHT22;31343;47.520;19.144;2023-02-01T01:46:31;4.00;99.90
45619;DHT22;31343;47.520;19.144;2023-02-01T01:51:30;4.10;99.90
45619;DHT22;31343;47.520;19.144;2023-02-01T01:54:11;4.10;99.90
45619;DHT22;31343;47.520;19.144;2023-02-01T01:56:40;4.10;99.90
45619;DHT22;31343;47.520;19.144;2023-02-01T01:59:07;4.20;99.90
45619;DHT22;31343;47.520;19.144;2023-02-01T02:01:33;4.20;99.90
45619;DHT22;31343;47.520;19.144;2023-02-01T02:03:59;4.20;99.90
45619;DHT22;31343;47.520;19.144;2023-02-01T02:09:03;4.20;99.90
45619;DHT22;31343;47.520;19.144;2023-02-01T02:11:29;4.20;99.90
45619;DHT22;31343;47.520;19.144;2023-02-01T02:13:55;4.10;99.90
45619;DHT22;31343;47.520;19.144;2023-02-01T02:22:03;4.20;99.90
45619;DHT22;31343;47.520;19.144;2023-02-01T02:30:38;4.20;99.90
45619;DHT22;31343;47.520;19.144;2023-02-01T02:36:08;4.40;99.90
45619;DHT22;31343;47.520;19.144;2023-02-01T02:47:50;4.60;99.90
45619;DHT22;31343;47.520;19.144;2023-02-01T02:50:32;4.60;99.90
45619;DHT22;31343;47.520;19.144;2023-02-01T02:53:23;4.60;99.90
45619;DHT22;31343;47.520;19.144;2023-02-01T02:56:10;4.60;99.90
45619;DHT22;31343;47.520;19.144;2023-02-01T02:58:55;4.60;99.90
45619;DHT22;31343;47.520;19.144;2023-02-01T03:01:40;4.50;99.90
45619;DHT22;31343;47.520;19.144;2023-02-01T03:04:25;4.50;99.90
45619;DHT22;31343;47.520;19.144;2023-02-01T03:06:53;4.40;99.90
45619;DHT22;31343;47.520;19.144;2023-02-01T03:09:33;4.30;99.90
45619;DHT22;31343;47.520;19.144;2023-02-01T03:12:06;4.30;99.90
45619;DHT22;31343;47.520;19.144;2023-02-01T03:14:57;4.40;99.90
45619;DHT22;31343;47.520;19.144;2023-02-01T03:17:30;4.40;99.90
45619;DHT22;31343;47.520;19.144;2023-02-01T03:20:00;4.40;99.90
45619;DHT22;31343;47.520;19.144;2023-02-01T03:22:28;4.40;99.90
45619;DHT22;31343;47.520;19.144;2023-02-01T03:25:05;4.40;99.90
45619;DHT22;31343;47.520;19.144;2023-02-01T03:27:49;4.50;99.90
45619;DHT22;31343;47.520;19.144;2023-02-01T03:30:21;4.40;99.90
45619;DHT22;31343;47.520;19.144;2023-02-01T03:32:50;4.30;99.90
45619;DHT22;31343;47.520;19.144;2023-02-01T03:41:08;4.10;99.90
45619;DHT22;31343;47.520;19.144;2023-02-01T03:44:01;4.10;99.90
45619;DHT22;31343;47.520;19.144;2023-02-01T03:46:34;4.10;99.90
45619;DHT22;31343;47.520;19.144;2023-02-01T03:49:04;4.00;99.90
45619;DHT22;31343;47.520;19.144;2023-02-01T03:51:31;4.10;99.90
45619;DHT22;31343;47.520;19.144;2023-02-01T03:53:59;4.10;99.90
45619;DHT22;31343;47.520;19.144;2023-02-01T03:56:27;4.10;99.90
45619;DHT22;31343;47.520;19.144;2023-02-01T03:58:53;4.20;99.90
45619;DHT22;31343;47.520;19.144;2023-02-01T04:01:27;4.20;99.90
45619;DHT22;31343;47.520;19.144;2023-02-01T04:03:53;4.20;99.90
45619;DHT22;31343;47.520;19.144;2023-02-01T04:06:20;4.20;99.90
45619;DHT22;31343;47.520;19.144;2023-02-01T04:08:45;4.20;99.90
45619;DHT22;31343;47.520;19.144;2023-02-01T04:11:12;4.20;99.90
45619;DHT22;31343;47.520;19.144;2023-02-01T04:13:38;4.20;99.90
45619;DHT22;31343;47.520;19.144;2023-02-01T04:16:05;4.20;99.90
45619;DHT22;31343;47.520;19.144;2023-02-01T04:18:31;4.20;99.90
45619;DHT22;31343;47.520;19.144;2023-02-01T04:20:57;4.20;99.90
45619;DHT22;31343;47.520;19.144;2023-02-01T04:23:24;4.20;99.90
45619;DHT22;31343;47.520;19.144;2023-02-01T04:25:50;4.20;99.90
45619;DHT22;31343;47.520;19.144;2023-02-01T04:28:15;4.20;99.90
45619;DHT22;31343;47.520;19.144;2023-02-01T04:30:41;4.20;99.90
45619;DHT22;31343;47.520;19.144;2023-02-01T04:33:07;4.20;99.90
45619;DHT22;31343;47.520;19.144;2023-02-01T04:35:33;4.20;99.90
45619;DHT22;31343;47.520;19.144;2023-02-01T04:38:00;4.20;99.90
45619;DHT22;31343;47.520;19.144;2023-02-01T04:40:26;4.20;99.90
45619;DHT22;31343;47.520;19.144;2023-02-01T04:42:52;4.20;99.90
45619;DHT22;31343;47.520;19.144;2023-02-01T04:45:18;4.20;99.90
45619;DHT22;31343;47.520;19.144;2023-02-01T04:47:43;4.10;99.90
45619;DHT22;31343;47.520;19.144;2023-02-01T04:50:10;4.10;99.90
45619;DHT22;31343;47.520;19.144;2023-02-01T04:52:36;4.10;99.90
45619;DHT22;31343;47.520;19.144;2023-02-01T04:55:03;4.10;99.90
45619;DHT22;31343;47.520;19.144;2023-02-01T04:57:29;4.10;99.90
45619;DHT22;31343;47.520;19.144;2023-02-01T04:59:54;4.10;99.90
45619;DHT22;31343;47.520;19.144;2023-02-01T05:02:20;4.00;99.90
45619;DHT22;31343;47.520;19.144;2023-02-01T05:04:46;4.00;99.90
45619;DHT22;31343;47.520;19.144;2023-02-01T05:07:12;4.00;99.90
45619;DHT22;31343;47.520;19.144;2023-02-01T05:09:37;4.00;99.90
45619;DHT22;31343;47.520;19.144;2023-02-01T05:12:03;3.90;99.90
45619;DHT22;31343;47.520;19.144;2023-02-01T05:14:47;4.00;99.90
45619;DHT22;31343;47.520;19.144;2023-02-01T05:17:14;4.10;99.90
45619;DHT22;31343;47.520;19.144;2023-02-01T05:19:40;4.10;99.90
45619;DHT22;31343;47.520;19.144;2023-02-01T05:22:05;4.10;99.90
45619;DHT22;31343;47.520;19.144;2023-02-01T05:24:31;4.00;99.90
45619;DHT22;31343;47.520;19.144;2023-02-01T05:26:57;4.00;99.90
45619;DHT22;31343;47.520;19.144;2023-02-01T05:29:23;4.00;99.90
45619;DHT22;31343;47.520;19.144;2023-02-01T05:31:48;4.10;99.90
45619;DHT22;31343;47.520;19.144;2023-02-01T05:34:15;4.10;99.90
45619;DHT22;31343;47.520;19.144;2023-02-01T05:36:41;4.10;99.90
45619;DHT22;31343;47.520;19.144;2023-02-01T05:39:07;4.00;99.90
45619;DHT22;31343;47.520;19.144;2023-02-01T05:41:33;4.00;99.90
45619;DHT22;31343;47.520;19.144;2023-02-01T05:44:00;4.00;99.90
45619;DHT22;31343;47.520;19.144;2023-02-01T05:46:25;4.10;99.90
45619;DHT22;31343;47.520;19.144;2023-02-01T05:48:51;4.10;99.90
45619;DHT22;31343;47.520;19.144;2023-02-01T05:51:17;4.20;99.90
45619;DHT22;31343;47.520;19.144;2023-02-01T05:53:42;4.20;99.90
45619;DHT22;31343;47.520;19.144;2023-02-01T05:56:08;4.30;99.90
45619;DHT22;31343;47.520;19.144;2023-02-01T05:58:34;4.20;99.90
45619;DHT22;31343;47.520;19.144;2023-02-01T06:01:00;4.20;99.90
45619;DHT22;31343;47.520;19.144;2023-02-01T06:03:27;4.30;99.90
45619;DHT22;31343;47.520;19.144;2023-02-01T06:05:53;4.10;99.90
45619;DHT22;31343;47.520;19.144;2023-02-01T06:08:18;4.10;99.90
45619;DHT22;31343;47.520;19.144;2023-02-01T06:10:45;4.10;99.90
45619;DHT22;31343;47.520;19.144;2023-02-01T06:13:11;4.10;99.90
45619;DHT22;31343;47.520;19.144;2023-02-01T06:15:37;4.20;99.90
45619;DHT22;31343;47.520;19.144;2023-02-01T06:18:03;4.20;99.90
45619;DHT22;31343;47.520;19.144;2023-02-01T06:20:29;4.20;99.90
45619;DHT22;31343;47.520;19.144;2023-02-01T06:22:55;4.20;99.90
45619;DHT22;31343;47.520;19.144;2023-02-01T06:25:20;4.20;99.90
45619;DHT22;31343;47.520;19.144;2023-02-01T06:27:48;4.20;99.90
45619;DHT22;31343;47.520;19.144;2023-02-01T06:30:14;4.30;99.90
45619;DHT22;31343;47.520;19.144;2023-02-01T06:32:40;4.30;99.90
45619;DHT22;31343;47.520;19.144;2023-02-01T06:35:10;4.40;99.90
45619;DHT22;31343;47.520;19.144;2023-02-01T06:37:42;4.40;99.90
45619;DHT22;31343;47.520;19.144;2023-02-01T06:40:10;4.50;99.90
45619;DHT22;31343;47.520;19.144;2023-02-01T06:42:36;4.90;99.90
45619;DHT22;31343;47.520;19.144;2023-02-01T06:45:01;5.50;99.90
45619;DHT22;31343;47.520;19.144;2023-02-01T06:47:28;6.10;99.90
45619;DHT22;31343;47.520;19.144;2023-02-01T06:49:55;6.60;99.90
45619;DHT22;31343;47.520;19.144;2023-02-01T06:52:21;7.30;99.90
45619;DHT22;31343;47.520;19.144;2023-02-01T06:54:47;7.60;99.90
45619;DHT22;31343;47.520;19.144;2023-02-01T06:57:14;7.90;99.90
45619;DHT22;31343;47.520;19.144;2023-02-01T06:59:40;8.20;99.90
45619;DHT22;31343;47.520;19.144;2023-02-01T07:02:05;8.60;99.90
45619;DHT22;31343;47.520;19.144;2023-02-01T07:04:31;8.80;99.90
45619;DHT22;31343;47.520;19.144;2023-02-01T07:06:57;8.90;99.90
45619;DHT22;31343;47.520;19.144;2023-02-01T07:09:22;9.20;99.90
45619;DHT22;31343;47.520;19.144;2023-02-01T07:11:48;9.40;99.90
45619;DHT22;31343;47.520;19.144;2023-02-01T07:14:14;10.00;99.30
45619;DHT22;31343;47.520;19.144;2023-02-01T07:16:40;10.40;98.40
45619;DHT22;31343;47.520;19.144;2023-02-01T07:19:05;10.80;97.60
45619;DHT22;31343;47.520;19.144;2023-02-01T07:21:31;10.80;96.90
45619;DHT22;31343;47.520;19.144;2023-02-01T07:23:59;10.70;96.90
45619;DHT22;31343;47.520;19.144;2023-02-01T07:26:25;11.00;97.10
45619;DHT22;31343;47.520;19.144;2023-02-01T07:28:50;10.90;96.40
45619;DHT22;31343;47.520;19.144;2023-02-01T07:31:18;11.10;96.00
45619;DHT22;31343;47.520;19.144;2023-02-01T07:33:48;10.70;96.50
45619;DHT22;31343;47.520;19.144;2023-02-01T07:36:17;10.80;96.60
45619;DHT22;31343;47.520;19.144;2023-02-01T07:38:44;10.80;96.70
45619;DHT22;31343;47.520;19.144;2023-02-01T07:41:12;10.80;96.70
45619;DHT22;31343;47.520;19.144;2023-02-01T07:43:38;10.40;97.20
45619;DHT22;31343;47.520;19.144;2023-02-01T07:46:04;10.20;97.50
45619;DHT22;31343;47.520;19.144;2023-02-01T07:48:31;9.80;98.00
45619;DHT22;31343;47.520;19.144;2023-02-01T07:51:02;9.80;98.10
45619;DHT22;31343;47.520;19.144;2023-02-01T07:53:30;9.60;98.90
45619;DHT22;31343;47.520;19.144;2023-02-01T07:55:56;9.60;99.00
45619;DHT22;31343;47.520;19.144;2023-02-01T07:58:23;9.90;98.50
45619;DHT22;31343;47.520;19.144;2023-02-01T08:00:50;9.90;98.70
45619;DHT22;31343;47.520;19.144;2023-02-01T08:03:34;10.00;98.50
45619;DHT22;31343;47.520;19.144;2023-02-01T08:06:00;9.80;98.40
45619;DHT22;31343;47.520;19.144;2023-02-01T08:08:26;9.60;98.50
45619;DHT22;31343;47.520;19.144;2023-02-01T08:10:57;9.30;98.90
45619;DHT22;31343;47.520;19.144;2023-02-01T08:13:23;9.10;99.70
45619;DHT22;31343;47.520;19.144;2023-02-01T08:15:50;8.90;99.80
45619;DHT22;31343;47.520;19.144;2023-02-01T08:18:15;8.70;99.90
45619;DHT22;31343;47.520;19.144;2023-02-01T08:20:44;8.60;99.90
45619;DHT22;31343;47.520;19.144;2023-02-01T08:23:11;8.60;99.90
45619;DHT22;31343;47.520;19.144;2023-02-01T08:25:37;8.50;99.90
45619;DHT22;31343;47.520;19.144;2023-02-01T08:28:05;8.40;99.90
45619;DHT22;31343;47.520;19.144;2023-02-01T08:30:31;8.40;99.90
45619;DHT22;31343;47.520;19.144;2023-02-01T08:32:57;8.30;99.90
45619;DHT22;31343;47.520;19.144;2023-02-01T08:35:23;8.30;99.90
45619;DHT22;31343;47.520;19.144;2023-02-01T08:37:52;8.30;99.90
45619;DHT22;31343;47.520;19.144;2023-02-01T08:40:17;8.10;99.90
45619;DHT22;31343;47.520;19.144;2023-02-01T08:42:44;8.20;99.90
45619;DHT22;31343;47.520;19.144;2023-02-01T08:45:21;8.10;99.90
45619;DHT22;31343;47.520;19.144;2023-02-01T08:47:47;8.10;99.90
45619;DHT22;31343;47.520;19.144;2023-02-01T08:50:14;8.00;99.90
45619;DHT22;31343;47.520;19.144;2023-02-01T08:52:40;8.00;99.90
45619;DHT22;31343;47.520;19.144;2023-02-01T08:55:06;8.00;99.90
45619;DHT22;31343;47.520;19.144;2023-02-01T08:57:33;8.00;99.90
45619;DHT22;31343;47.520;19.144;2023-02-01T08:59:59;8.10;99.90
45619;DHT22;31343;47.520;19.144;2023-02-01T09:02:25;8.20;99.90
45619;DHT22;31343;47.520;19.144;2023-02-01T09:04:51;8.40;99.90
45619;DHT22;31343;47.520;19.144;2023-02-01T09:07:17;8.50;99.90
45619;DHT22;31343;47.520;19.144;2023-02-01T09:09:44;8.50;99.90
45619;DHT22;31343;47.520;19.144;2023-02-01T09:12:10;8.60;99.90
45619;DHT22;31343;47.520;19.144;2023-02-01T09:14:38;8.70;99.90
45619;DHT22;31343;47.520;19.144;2023-02-01T09:17:04;8.80;99.90
45619;DHT22;31343;47.520;19.144;2023-02-01T09:19:31;9.10;99.90
45619;DHT22;31343;47.520;19.144;2023-02-01T09:21:57;9.30;99.90
45619;DHT22;31343;47.520;19.144;2023-02-01T09:24:23;9.50;99.80
45619;DHT22;31343;47.520;19.144;2023-02-01T09:26:49;9.70;99.10
45619;DHT22;31343;47.520;19.144;2023-02-01T09:29:15;9.70;99.40
45619;DHT22;31343;47.520;19.144;2023-02-01T09:31:42;9.90;99.20
45619;DHT22;31343;47.520;19.144;2023-02-01T09:34:08;10.00;98.70
45619;DHT22;31343;47.520;19.144;2023-02-01T09:36:34;10.00;98.60
45619;DHT22;31343;47.520;19.144;2023-02-01T09:39:01;9.90;98.10
45619;DHT22;31343;47.520;19.144;2023-02-01T09:42:18;9.70;98.70
45619;DHT22;31343;47.520;19.144;2023-02-01T09:45:01;9.60;99.00
45619;DHT22;31343;47.520;19.144;2023-02-01T09:47:29;9.20;99.20
45619;DHT22;31343;47.520;19.144;2023-02-01T09:50:03;9.30;99.70
45619;DHT22;31343;47.520;19.144;2023-02-01T09:52:44;9.10;99.90
45619;DHT22;31343;47.520;19.144;2023-02-01T09:58:12;8.60;99.90
45619;DHT22;31343;47.520;19.144;2023-02-01T10:00:40;8.40;99.90
45619;DHT22;31343;47.520;19.144;2023-02-01T10:03:12;8.50;99.90
45619;DHT22;31343;47.520;19.144;2023-02-01T10:06:20;8.40;99.90
45619;DHT22;31343;47.520;19.144;2023-02-01T10:28:25;8.60;99.90
45619;DHT22;31343;47.520;19.144;2023-02-01T10:30:56;8.70;99.90
45619;DHT22;31343;47.520;19.144;2023-02-01T10:33:32;8.50;99.90
45619;DHT22;31343;47.520;19.144;2023-02-01T10:36:08;8.40;99.90
45619;DHT22;31343;47.520;19.144;2023-02-01T10:38:42;8.40;99.90
45619;DHT22;31343;47.520;19.144;2023-02-01T10:41:20;8.70;99.90
45619;DHT22;31343;47.520;19.144;2023-02-01T10:43:51;8.90;99.90
45619;DHT22;31343;47.520;19.144;2023-02-01T10:46:33;9.10;99.90
45619;DHT22;31343;47.520;19.144;2023-02-01T10:49:03;9.20;99.90
45619;DHT22;31343;47.520;19.144;2023-02-01T10:52:09;9.40;99.90
45619;DHT22;31343;47.520;19.144;2023-02-01T10:54:41;9.30;99.90
45619;DHT22;31343;47.520;19.144;2023-02-01T10:57:23;9.50;99.90
45619;DHT22;31343;47.520;19.144;2023-02-01T10:59:51;9.70;99.90
45619;DHT22;31343;47.520;19.144;2023-02-01T11:02:28;9.90;99.90
45619;DHT22;31343;47.520;19.144;2023-02-01T11:05:05;9.80;99.90
45619;DHT22;31343;47.520;19.144;2023-02-01T11:07:39;9.80;99.90
45619;DHT22;31343;47.520;19.144;2023-02-01T11:10:05;9.60;99.90
45619;DHT22;31343;47.520;19.144;2023-02-01T11:12:37;9.80;99.90
45619;DHT22;31343;47.520;19.144;2023-02-01T11:15:18;10.10;99.90
45619;DHT22;31343;47.520;19.144;2023-02-01T11:17:49;10.20;99.30
45619;DHT22;31343;47.520;19.144;2023-02-01T11:22:59;9.70;99.90
45619;DHT22;31343;47.520;19.144;2023-02-01T11:25:25;9.70;99.90
45619;DHT22;31343;47.520;19.144;2023-02-01T11:27:55;9.50;99.90
45619;DHT22;31343;47.520;19.144;2023-02-01T11:30:33;9.70;99.90
45619;DHT22;31343;47.520;19.144;2023-02-01T11:33:03;9.80;99.90
45619;DHT22;31343;47.520;19.144;2023-02-01T11:35:32;9.60;99.80
45619;DHT22;31343;47.520;19.144;2023-02-01T11:38:17;9.50;99.90
45619;DHT22;31343;47.520;19.144;2023-02-01T11:40:46;9.50;99.90
45619;DHT22;31343;47.520;19.144;2023-02-01T11:43:27;9.60;99.90
45619;DHT22;31343;47.520;19.144;2023-02-01T11:46:16;9.60;99.90
45619;DHT22;31343;47.520;19.144;2023-02-01T11:48:43;8.90;99.90
45619;DHT22;31343;47.520;19.144;2023-02-01T11:51:41;8.70;99.90
45619;DHT22;31343;47.520;19.144;2023-02-01T11:54:31;8.60;99.90
45619;DHT22;31343;47.520;19.144;2023-02-01T12:00:15;7.90;99.90
45619;DHT22;31343;47.520;19.144;2023-02-01T12:03:23;7.90;99.90
45619;DHT22;31343;47.520;19.144;2023-02-01T12:14:10;7.60;99.90
45619;DHT22;31343;47.520;19.144;2023-02-01T12:17:18;7.50;99.90
45619;DHT22;31343;47.520;19.144;2023-02-01T12:31:49;7.10;99.90
45619;DHT22;31343;47.520;19.144;2023-02-01T12:37:34;6.90;99.90
45619;DHT22;31343;47.520;19.144;2023-02-01T12:40:17;6.80;99.90
45619;DHT22;31343;47.520;19.144;2023-02-01T12:43:00;6.60;99.90
45619;DHT22;31343;47.520;19.144;2023-02-01T12:48:22;6.30;99.90
45619;DHT22;31343;47.520;19.144;2023-02-01T12:51:04;6.20;99.90
45619;DHT22;31343;47.520;19.144;2023-02-01T12:53:51;5.80;99.90
45619;DHT22;31343;47.520;19.144;2023-02-01T12:56:34;5.70;99.90
45619;DHT22;31343;47.520;19.144;2023-02-01T12:59:27;5.60;99.90
45619;DHT22;31343;47.520;19.144;2023-02-01T13:02:11;5.50;99.90
45619;DHT22;31343;47.520;19.144;2023-02-01T13:04:59;5.70;99.90
45619;DHT22;31343;47.520;19.144;2023-02-01T13:07:43;5.80;99.90
45619;DHT22;31343;47.520;19.144;2023-02-01T13:12:53;5.80;99.90
45619;DHT22;31343;47.520;19.144;2023-02-01T13:18:39;6.50;99.90
45619;DHT22;31343;47.520;19.144;2023-02-01T13:21:26;7.20;99.90
45619;DHT22;31343;47.520;19.144;2023-02-01T13:23:55;7.40;99.90
45619;DHT22;31343;47.520;19.144;2023-02-01T13:26:21;7.40;99.90
45619;DHT22;31343;47.520;19.144;2023-02-01T13:28:51;7.40;99.90
45619;DHT22;31343;47.520;19.144;2023-02-01T13:40:13;6.70;99.90
45619;DHT22;31343;47.520;19.144;2023-02-01T13:45:19;6.30;99.90
45619;DHT22;31343;47.520;19.144;2023-02-01T13:47:49;6.10;99.90
45619;DHT22;31343;47.520;19.144;2023-02-01T13:50:34;6.00;99.90
45619;DHT22;31343;47.520;19.144;2023-02-01T13:53:35;6.00;99.90
45619;DHT22;31343;47.520;19.144;2023-02-01T13:56:24;6.00;99.90
45619;DHT22;31343;47.520;19.144;2023-02-01T13:58:53;5.90;99.90
45619;DHT22;31343;47.520;19.144;2023-02-01T14:32:45;7.40;99.90
45619;DHT22;31343;47.520;19.144;2023-02-01T17:28:24;5.40;99.90
45619;DHT22;31343;47.520;19.144;2023-02-01T17:30:50;5.40;99.90
45619;DHT22;31343;47.520;19.144;2023-02-01T17:33:24;5.30;99.90
45619;DHT22;31343;47.520;19.144;2023-02-01T17:35:51;5.30;99.90
45619;DHT22;31343;47.520;19.144;2023-02-01T17:38:17;5.20;99.90
45619;DHT22;31343;47.520;19.144;2023-02-01T17:40:43;5.20;99.90
45619;DHT22;31343;47.520;19.144;2023-02-01T17:43:19;5.20;99.90
45619;DHT22;31343;47.520;19.144;2023-02-01T17:45:49;5.20;99.90
45619;DHT22;31343;47.520;19.144;2023-02-01T17:48:21;5.10;99.90
45619;DHT22;31343;47.520;19.144;2023-02-01T17:50:51;5.10;99.90
45619;DHT22;31343;47.520;19.144;2023-02-01T17:53:27;5.00;99.90
45619;DHT22;31343;47.520;19.144;2023-02-01T17:55:54;4.90;99.90
45619;DHT22;31343;47.520;19.144;2023-02-01T17:58:22;5.10;99.90
45619;DHT22;31343;47.520;19.144;2023-02-01T18:00:49;5.20;99.90
45619;DHT22;31343;47.520;19.144;2023-02-01T18:03:23;5.20;99.90
45619;DHT22;31343;47.520;19.144;2023-02-01T18:05:50;5.30;99.90
45619;DHT22;31343;47.520;19.144;2023-02-01T18:08:22;5.40;99.90
45619;DHT22;31343;47.520;19.144;2023-02-01T18:10:52;5.50;99.90
45619;DHT22;31343;47.520;19.144;2023-02-01T18:13:19;5.60;99.90
45619;DHT22;31343;47.520;19.144;2023-02-01T18:15:45;5.50;99.90
45619;DHT22;31343;47.520;19.144;2023-02-01T18:18:12;5.50;99.90
45619;DHT22;31343;47.520;19.144;2023-02-01T18:20:39;5.40;99.90
45619;DHT22;31343;47.520;19.144;2023-02-01T18:23:15;5.30;99.90
45619;DHT22;31343;47.520;19.144;2023-02-01T18:25:42;5.30;99.90
45619;DHT22;31343;47.520;19.144;2023-02-01T18:28:09;5.20;99.90
45619;DHT22;31343;47.520;19.144;2023-02-01T18:30:35;5.20;99.90
45619;DHT22;31343;47.520;19.144;2023-02-01T18:33:00;5.20;99.90
45619;DHT22;31343;47.520;19.144;2023-02-01T18:35:28;5.20;99.90
45619;DHT22;31343;47.520;19.144;2023-02-01T18:37:55;5.20;99.90
45619;DHT22;31343;47.520;19.144;2023-02-01T18:40:29;5.30;99.90
45619;DHT22;31343;47.520;19.144;2023-02-01T18:42:57;5.30;99.90
45619;DHT22;31343;47.520;19.144;2023-02-01T18:47:57;5.50;99.90
45619;DHT22;31343;47.520;19.144;2023-02-01T18:50:24;5.60;99.90
45619;DHT22;31343;47.520;19.144;2023-02-01T18:52:55;5.60;99.90
45619;DHT22;31343;47.520;19.144;2023-02-01T18:55:23;5.70;99.90
45619;DHT22;31343;47.520;19.144;2023-02-01T18:57:49;5.60;99.90
45619;DHT22;31343;47.520;19.144;2023-02-01T19:00:17;5.60;99.90
45619;DHT22;31343;47.520;19.144;2023-02-01T19:02:44;5.50;99.90
45619;DHT22;31343;47.520;19.144;2023-02-01T19:05:10;5.50;99.90
45619;DHT22;31343;47.520;19.144;2023-02-01T19:07:37;5.50;99.90
45619;DHT22;31343;47.520;19.144;2023-02-01T19:10:05;5.30;99.90
45619;DHT22;31343;47.520;19.144;2023-02-01T19:12:32;5.30;99.90
45619;DHT22;31343;47.520;19.144;2023-02-01T19:14:59;5.30;99.90
45619;DHT22;31343;47.520;19.144;2023-02-01T19:17:27;5.30;99.90
45619;DHT22;31343;47.520;19.144;2023-02-01T19:19:53;5.30;99.90
45619;DHT22;31343;47.520;19.144;2023-02-01T19:22:19;5.30;99.90
45619;DHT22;31343;47.520;19.144;2023-02-01T19:24:45;5.30;99.90
45619;DHT22;31343;47.520;19.144;2023-02-01T19:27:11;5.30;99.90
45619;DHT22;31343;47.520;19.144;2023-02-01T19:29:36;5.30;99.90
45619;DHT22;31343;47.520;19.144;2023-02-01T19:32:04;5.20;99.90
45619;DHT22;31343;47.520;19.144;2023-02-01T19:34:30;5.30;99.90
45619;DHT22;31343;47.520;19.144;2023-02-01T19:36:56;5.20;99.90
45619;DHT22;31343;47.520;19.144;2023-02-01T19:39:22;5.30;99.90
45619;DHT22;31343;47.520;19.144;2023-02-01T19:41:50;5.30;99.90
45619;DHT22;31343;47.520;19.144;2023-02-01T19:44:16;5.30;99.90
45619;DHT22;31343;47.520;19.144;2023-02-01T19:46:42;5.30;99.90
45619;DHT22;31343;47.520;19.144;2023-02-01T19:49:07;5.30;99.90
45619;DHT22;31343;47.520;19.144;2023-02-01T19:51:39;5.30;99.90
45619;DHT22;31343;47.520;19.144;2023-02-01T19:54:07;5.30;99.90
45619;DHT22;31343;47.520;19.144;2023-02-01T19:56:34;5.40;99.90
45619;DHT22;31343;47.520;19.144;2023-02-01T19:59:01;5.40;99.90
45619;DHT22;31343;47.520;19.144;2023-02-01T20:01:27;5.40;99.90
45619;DHT22;31343;47.520;19.144;2023-02-01T20:03:53;5.50;99.90
45619;DHT22;31343;47.520;19.144;2023-02-01T20:06:19;5.40;99.90
45619;DHT22;31343;47.520;19.144;2023-02-01T20:08:47;5.40;99.90
45619;DHT22;31343;47.520;19.144;2023-02-01T20:11:13;5.50;99.90
45619;DHT22;31343;47.520;19.144;2023-02-01T20:13:39;5.50;99.90
45619;DHT22;31343;47.520;19.144;2023-02-01T20:16:05;5.50;99.90
45619;DHT22;31343;47.520;19.144;2023-02-01T20:18:30;5.60;99.90
45619;DHT22;31343;47.520;19.144;2023-02-01T20:20:57;5.60;99.90
45619;DHT22;31343;47.520;19.144;2023-02-01T20:23:24;5.60;99.90
45619;DHT22;31343;47.520;19.144;2023-02-01T20:25:50;5.60;99.90
45619;DHT22;31343;47.520;19.144;2023-02-01T20:28:16;5.60;99.90
45619;DHT22;31343;47.520;19.144;2023-02-01T20:30:45;5.60;99.90
45619;DHT22;31343;47.520;19.144;2023-02-01T20:33:11;5.60;99.90
45619;DHT22;31343;47.520;19.144;2023-02-01T20:35:37;5.60;99.90
45619;DHT22;31343;47.520;19.144;2023-02-01T20:38:03;5.60;99.90
45619;DHT22;31343;47.520;19.144;2023-02-01T20:40:28;5.60;99.90
45619;DHT22;31343;47.520;19.144;2023-02-01T20:42:55;5.50;99.90
45619;DHT22;31343;47.520;19.144;2023-02-01T20:45:22;5.50;99.90
45619;DHT22;31343;47.520;19.144;2023-02-01T20:47:49;5.50;99.90
45619;DHT22;31343;47.520;19.144;2023-02-01T20:50:17;5.50;99.90
45619;DHT22;31343;47.520;19.144;2023-02-01T20:52:44;5.40;99.90
45619;DHT22;31343;47.520;19.144;2023-02-01T20:55:10;5.40;99.90
45619;DHT22;31343;47.520;19.144;2023-02-01T20:57:35;5.40;99.90
45619;DHT22;31343;47.520;19.144;2023-02-01T21:00:02;5.40;99.90